Time;durP1;ratioP1;P1;durP2;ratioP2;P2;SDS_P1;SDS_P2;PMS_P1;PMS_P2;Temp;Humidity;BMP_temperature;BMP_pressure;BME280_temperature;BME280_humidity;BME280_pressure;Samples;Min_cycle;Max_cycle;Signal;HPM_P1;HPM_P2
2023/08/23 00:00:17;;;;;;;30.47;25.53;;;24.60;99.90;;;;;;4909714;29;20499;-47
2023/08/23 00:02:44;;;;;;;27.07;24.27;;;24.60;99.90;;;;;;4908647;29;20571;-49
2023/08/23 00:05:11;;;;;;;29.83;26.60;;;24.60;99.90;;;;;;4908206;29;20819;-53
2023/08/23 00:07:38;;;;;;;30.70;27.47;;;24.60;99.90;;;;;;4909038;29;20494;-52
2023/08/23 00:10:07;;;;;;;29.70;25.70;;;24.60;99.90;;;;;;4907678;29;20459;-47
2023/08/23 00:12:33;;;;;;;32.80;25.47;;;24.60;99.90;;;;;;4908560;29;20448;-47
2023/08/23 00:15:00;;;;;;;27.93;25.10;;;24.60;99.90;;;;;;4909863;29;20473;-49
2023/08/23 00:17:27;;;;;;;28.47;25.43;;;24.60;99.90;;;;;;4908600;29;20500;-51
2023/08/23 00:19:55;;;;;;;29.07;25.97;;;24.60;99.90;;;;;;4910304;29;20497;-48
2023/08/23 00:22:21;;;;;;;28.27;25.20;;;24.60;99.90;;;;;;4916677;29;20470;-48
2023/08/23 00:24:48;;;;;;;28.50;24.70;;;24.60;99.90;;;;;;4911850;29;20463;-50
2023/08/23 00:27:16;;;;;;;27.47;24.87;;;24.60;99.90;;;;;;4918072;29;20501;-48
2023/08/23 00:29:43;;;;;;;27.57;24.60;;;24.60;99.90;;;;;;4921644;29;20469;-49
2023/08/23 00:32:10;;;;;;;27.13;24.30;;;24.60;99.90;;;;;;4913637;29;20466;-49
2023/08/23 00:34:36;;;;;;;24.03;21.50;;;24.60;99.90;;;;;;4917579;29;20458;-51
2023/08/23 00:37:03;;;;;;;24.17;22.00;;;24.60;99.90;;;;;;4910738;29;20473;-49
2023/08/23 00:39:30;;;;;;;27.37;24.67;;;24.60;99.90;;;;;;4918856;29;20466;-50
2023/08/23 00:41:57;;;;;;;27.07;24.30;;;24.60;99.90;;;;;;4916645;29;20492;-48
2023/08/23 00:44:25;;;;;;;26.43;23.80;;;24.60;99.90;;;;;;4917120;29;20469;-48
2023/08/23 00:46:51;;;;;;;26.33;23.60;;;24.60;99.90;;;;;;4914334;29;20481;-48
2023/08/23 00:49:18;;;;;;;29.30;26.17;;;24.60;99.90;;;;;;4913609;29;20477;-49
2023/08/23 00:51:45;;;;;;;28.63;25.83;;;24.60;99.90;;;;;;4917203;29;20489;-49
2023/08/23 00:54:12;;;;;;;29.33;25.83;;;24.60;99.90;;;;;;4916342;29;20479;-50
2023/08/23 00:56:39;;;;;;;27.83;25.13;;;24.60;99.90;;;;;;4918062;29;20467;-50
2023/08/23 00:59:08;;;;;;;27.10;24.40;;;24.60;99.90;;;;;;4916582;29;21012;-49
2023/08/23 01:01:36;;;;;;;28.33;25.73;;;24.60;99.90;;;;;;4916524;29;20461;-50
2023/08/23 01:04:02;;;;;;;30.00;26.80;;;24.60;99.90;;;;;;4920737;23;20568;-66
2023/08/23 01:06:37;;;;;;;26.93;24.13;;;24.60;99.90;;;;;;4888811;29;20490;-64
2023/08/23 01:09:14;;;;;;;27.50;24.70;;;24.60;99.90;;;;;;4895411;29;21023;-62
2023/08/23 01:11:45;;;;;;;28.57;25.40;;;24.60;99.90;;;;;;4894133;29;20474;-62
2023/08/23 01:14:17;;;;;;;26.93;24.10;;;24.60;99.90;;;;;;4893381;29;20562;-64
2023/08/23 01:16:48;;;;;;;26.07;23.37;;;24.60;99.90;;;;;;4893701;29;20892;-63
2023/08/23 01:19:35;;;;;;;28.03;25.17;;;24.60;99.90;;;;;;4889923;29;20471;-66
2023/08/23 01:22:06;;;;;;;26.97;24.33;;;24.60;99.90;;;;;;4892921;29;20497;-63
2023/08/23 01:24:35;;;;;;;25.50;22.90;;;24.60;99.90;;;;;;4898637;29;20612;-65
2023/08/23 01:27:02;;;;;;;28.83;25.83;;;24.60;99.90;;;;;;4896831;29;20833;-64
2023/08/23 01:29:28;;;;;;;26.03;23.23;;;24.60;99.90;;;;;;4892213;29;20468;-63
2023/08/23 01:32:01;;;;;;;26.37;24.13;;;24.60;99.90;;;;;;4890547;29;20702;-63
2023/08/23 01:34:30;;;;;;;24.80;22.60;;;24.60;99.90;;;;;;4893646;29;20513;-63
2023/08/23 01:36:59;;;;;;;25.27;22.67;;;24.60;99.90;;;;;;4893666;29;20469;-63
2023/08/23 01:39:26;;;;;;;26.23;23.63;;;24.60;99.90;;;;;;4894200;29;20474;-65
2023/08/23 01:41:55;;;;;;;27.30;24.70;;;24.60;99.90;;;;;;4894733;29;20478;-64
2023/08/23 01:44:22;;;;;;;27.17;24.47;;;24.60;99.90;;;;;;4894465;29;20471;-62
2023/08/23 01:46:49;;;;;;;25.67;23.30;;;24.60;99.90;;;;;;4892814;29;20492;-63
2023/08/23 01:49:16;;;;;;;24.77;22.53;;;24.60;99.90;;;;;;4894292;29;20730;-64
2023/08/23 01:51:42;;;;;;;26.63;24.10;;;24.60;99.90;;;;;;4894295;29;20467;-62
2023/08/23 01:54:09;;;;;;;26.60;23.10;;;24.60;99.90;;;;;;4895697;29;20544;-64
2023/08/23 01:56:36;;;;;;;28.07;25.27;;;24.60;99.90;;;;;;4893792;29;20476;-64
2023/08/23 01:59:04;;;;;;;26.57;24.00;;;24.60;99.90;;;;;;4895115;29;20467;-62
2023/08/23 02:01:31;;;;;;;25.97;23.47;;;24.60;99.90;;;;;;4888791;29;21078;-63
2023/08/23 02:03:58;;;;;;;28.37;25.53;;;24.60;99.90;;;;;;4896959;29;20468;-63
2023/08/23 02:06:25;;;;;;;27.13;24.60;;;24.60;99.90;;;;;;4893933;29;20502;-66
2023/08/23 02:08:51;;;;;;;27.30;24.60;;;24.60;99.90;;;;;;4893608;29;20821;-65
2023/08/23 02:11:18;;;;;;;26.30;24.17;;;24.60;99.90;;;;;;4894559;29;20483;-63
2023/08/23 02:13:45;;;;;;;26.17;23.77;;;24.60;99.90;;;;;;4892478;29;20468;-62
2023/08/23 02:16:13;;;;;;;26.87;24.17;;;24.60;99.90;;;;;;4890742;29;20607;-64
2023/08/23 02:18:40;;;;;;;24.57;22.17;;;24.60;99.90;;;;;;4892062;29;20471;-63
2023/08/23 02:21:06;;;;;;;27.17;24.73;;;24.60;99.90;;;;;;4890292;29;20476;-63
2023/08/23 02:23:33;;;;;;;25.37;23.10;;;24.60;99.90;;;;;;4891676;29;20474;-63
2023/08/23 02:26:00;;;;;;;26.33;23.93;;;24.60;99.90;;;;;;4890938;29;20471;-64
2023/08/23 02:28:27;;;;;;;25.63;23.10;;;24.60;99.90;;;;;;4895584;29;21199;-63
2023/08/23 02:30:53;;;;;;;25.30;22.93;;;24.60;99.90;;;;;;4893476;29;20476;-64
2023/08/23 02:33:21;;;;;;;26.10;22.13;;;24.60;99.90;;;;;;4895222;29;20465;-66
2023/08/23 02:35:48;;;;;;;25.13;22.70;;;24.60;99.90;;;;;;4894874;29;20799;-63
2023/08/23 02:38:15;;;;;;;26.23;23.63;;;24.60;99.90;;;;;;4896940;29;20476;-62
2023/08/23 02:40:42;;;;;;;24.83;22.43;;;24.60;99.90;;;;;;4896861;29;20470;-66
2023/08/23 02:43:09;;;;;;;26.37;24.10;;;24.60;99.90;;;;;;4898717;29;20484;-64
2023/08/23 02:45:39;;;;;;;23.80;21.80;;;24.60;99.90;;;;;;4895958;29;20910;-64
2023/08/23 02:48:07;;;;;;;23.90;21.60;;;24.60;99.90;;;;;;4895824;29;20493;-64
2023/08/23 02:50:35;;;;;;;24.63;22.47;;;24.60;99.90;;;;;;4898122;29;20471;-62
2023/08/23 02:53:02;;;;;;;24.53;22.20;;;24.60;99.90;;;;;;4895268;29;20900;-64
2023/08/23 02:55:28;;;;;;;24.97;22.67;;;24.60;99.90;;;;;;4895674;29;20476;-63
2023/08/23 02:57:55;;;;;;;24.93;22.87;;;24.60;99.90;;;;;;4896035;29;20483;-62
2023/08/23 03:00:22;;;;;;;25.03;22.53;;;24.50;99.90;;;;;;4893363;29;20468;-64
2023/08/23 03:02:49;;;;;;;25.40;23.03;;;24.50;99.90;;;;;;4890701;29;20494;-63
2023/08/23 03:05:16;;;;;;;24.17;21.93;;;24.50;99.90;;;;;;4895122;29;20498;-65
2023/08/23 03:07:44;;;;;;;24.53;22.23;;;24.50;99.90;;;;;;4893188;29;20490;-64
2023/08/23 03:10:11;;;;;;;25.90;23.60;;;24.50;99.90;;;;;;4896315;29;20464;-66
2023/08/23 03:12:38;;;;;;;26.40;24.10;;;24.50;99.90;;;;;;4896758;29;20472;-63
2023/08/23 03:15:05;;;;;;;25.20;22.87;;;24.50;99.90;;;;;;4892913;29;20479;-66
2023/08/23 03:17:32;;;;;;;24.87;22.60;;;24.50;99.90;;;;;;4891168;29;20554;-63
2023/08/23 03:19:59;;;;;;;25.20;22.90;;;24.50;99.90;;;;;;4892679;29;20479;-65
2023/08/23 03:22:25;;;;;;;23.33;21.43;;;24.50;99.90;;;;;;4889304;29;20490;-62
2023/08/23 03:24:54;;;;;;;26.83;24.40;;;24.50;99.90;;;;;;4894485;29;20464;-63
2023/08/23 03:27:20;;;;;;;26.33;23.93;;;24.50;99.90;;;;;;4892787;29;20815;-65
2023/08/23 03:29:47;;;;;;;24.20;22.10;;;24.50;99.90;;;;;;4892753;29;20466;-65
2023/08/23 03:32:15;;;;;;;23.63;21.50;;;24.50;99.90;;;;;;4889689;29;20467;-64
2023/08/23 03:34:42;;;;;;;24.67;22.37;;;24.50;99.90;;;;;;4890660;29;20468;-64
2023/08/23 03:37:09;;;;;;;25.17;23.10;;;24.50;99.90;;;;;;4890805;29;20671;-66
2023/08/23 03:39:37;;;;;;;24.57;22.47;;;24.50;99.90;;;;;;4892744;29;20492;-66
2023/08/23 03:42:06;;;;;;;23.47;21.17;;;24.50;99.90;;;;;;4891718;29;20475;-63
2023/08/23 03:44:32;;;;;;;23.50;21.33;;;24.50;99.90;;;;;;4893958;29;20986;-62
2023/08/23 03:46:59;;;;;;;23.87;21.87;;;24.50;99.90;;;;;;4891054;29;20494;-63
2023/08/23 03:49:26;;;;;;;22.83;20.83;;;24.50;99.90;;;;;;4893606;29;20481;-62
2023/08/23 03:51:52;;;;;;;23.80;21.70;;;24.50;99.90;;;;;;4893297;29;20459;-63
2023/08/23 03:54:21;;;;;;;25.17;23.07;;;24.50;99.90;;;;;;4894954;29;20475;-63
2023/08/23 03:56:48;;;;;;;23.37;21.43;;;24.50;99.90;;;;;;4894547;29;20473;-62
2023/08/23 03:59:16;;;;;;;25.03;22.77;;;24.50;99.90;;;;;;4891933;29;20472;-62
2023/08/23 04:01:43;;;;;;;23.73;21.83;;;24.50;99.90;;;;;;4893966;29;20491;-63
2023/08/23 04:04:10;;;;;;;24.30;22.30;;;24.50;99.90;;;;;;4892475;29;20535;-63
2023/08/23 04:06:36;;;;;;;24.93;22.80;;;24.50;99.90;;;;;;4891837;29;20485;-62
2023/08/23 04:09:03;;;;;;;24.00;22.00;;;24.50;99.90;;;;;;4892835;29;20474;-63
2023/08/23 04:11:30;;;;;;;24.77;22.53;;;24.50;99.90;;;;;;4894125;29;20449;-62
2023/08/23 04:13:57;;;;;;;23.27;21.37;;;24.50;99.90;;;;;;4893000;29;20466;-63
2023/08/23 04:16:25;;;;;;;23.53;21.33;;;24.50;99.90;;;;;;4890349;29;20474;-66
2023/08/23 04:18:51;;;;;;;24.50;22.30;;;24.50;99.90;;;;;;4889241;29;20501;-63
2023/08/23 04:21:18;;;;;;;23.97;21.90;;;24.50;99.90;;;;;;4891370;29;20467;-65
2023/08/23 04:23:45;;;;;;;23.17;21.37;;;24.50;99.90;;;;;;4890081;29;20974;-64
2023/08/23 04:26:11;;;;;;;22.07;20.20;;;24.50;99.90;;;;;;4886577;29;20474;-66
2023/08/23 04:28:38;;;;;;;23.87;21.93;;;24.50;99.90;;;;;;4888291;29;20491;-65
2023/08/23 04:31:05;;;;;;;23.57;21.47;;;24.50;99.90;;;;;;4889983;29;20464;-66
2023/08/23 04:33:34;;;;;;;22.87;20.80;;;24.50;99.90;;;;;;4885569;29;20472;-64
2023/08/23 04:36:02;;;;;;;23.27;21.33;;;24.50;99.90;;;;;;4891497;29;20497;-64
2023/08/23 04:38:29;;;;;;;22.37;20.53;;;24.50;99.90;;;;;;4889006;29;20471;-62
2023/08/23 04:41:05;;;;;;;22.60;20.70;;;24.50;99.90;;;;;;4894122;29;20978;-62
2023/08/23 04:43:33;;;;;;;23.13;21.07;;;24.50;99.90;;;;;;4891223;29;20475;-65
2023/08/23 04:46:00;;;;;;;23.67;21.67;;;24.50;99.90;;;;;;4889532;29;20984;-64
2023/08/23 04:48:27;;;;;;;23.23;21.33;;;24.50;99.90;;;;;;4888769;29;20552;-62
2023/08/23 04:50:56;;;;;;;21.50;19.80;;;24.50;99.90;;;;;;4892812;29;20467;-65
2023/08/23 04:53:22;;;;;;;22.23;20.63;;;24.50;99.90;;;;;;4889780;29;20980;-64
2023/08/23 04:55:50;;;;;;;22.30;20.33;;;24.40;99.90;;;;;;4894861;29;20475;-65
2023/08/23 04:58:16;;;;;;;23.10;21.20;;;24.40;99.90;;;;;;4889491;29;20479;-63
2023/08/23 05:00:43;;;;;;;21.37;19.57;;;24.40;99.90;;;;;;4886400;29;20466;-65
2023/08/23 05:03:11;;;;;;;24.07;22.17;;;24.50;99.90;;;;;;4893181;29;20511;-62
2023/08/23 05:05:38;;;;;;;22.93;21.13;;;24.40;99.90;;;;;;4892437;29;20542;-64
2023/08/23 05:08:07;;;;;;;23.30;21.23;;;24.50;99.90;;;;;;4897887;29;20495;-63
2023/08/23 05:10:33;;;;;;;22.67;20.83;;;24.40;99.90;;;;;;4894779;29;20985;-64
2023/08/23 05:13:01;;;;;;;22.47;20.47;;;24.40;99.90;;;;;;4895245;29;20463;-65
2023/08/23 05:15:28;;;;;;;20.80;19.00;;;24.40;99.90;;;;;;4892448;29;20485;-62
2023/08/23 05:17:55;;;;;;;21.53;19.40;;;24.40;99.90;;;;;;4897771;29;20469;-63
2023/08/23 05:20:21;;;;;;;20.90;19.30;;;24.40;99.90;;;;;;4891982;29;20463;-63
2023/08/23 05:22:48;;;;;;;19.43;17.80;;;24.40;99.90;;;;;;4891236;29;20473;-64
2023/08/23 05:25:16;;;;;;;17.53;16.23;;;24.40;99.90;;;;;;4900290;29;20816;-66
2023/08/23 05:27:43;;;;;;;20.13;18.43;;;24.40;99.90;;;;;;4898538;29;20491;-63
2023/08/23 05:30:10;;;;;;;18.30;16.90;;;24.40;99.90;;;;;;4895158;29;20470;-64
2023/08/23 05:32:37;;;;;;;19.50;17.80;;;24.40;99.90;;;;;;4897195;29;20455;-65
2023/08/23 05:35:04;;;;;;;18.20;16.60;;;24.40;99.90;;;;;;4896469;29;20874;-66
2023/08/23 05:37:31;;;;;;;19.13;17.57;;;24.40;99.90;;;;;;4890603;29;20477;-65
2023/08/23 05:39:57;;;;;;;20.30;18.50;;;24.40;99.90;;;;;;4895931;29;20497;-62
2023/08/23 05:42:25;;;;;;;19.17;17.53;;;24.40;99.90;;;;;;4890895;29;20526;-64
2023/08/23 05:44:52;;;;;;;18.17;16.60;;;24.40;99.90;;;;;;4891079;29;20471;-66
2023/08/23 05:47:19;;;;;;;19.23;17.43;;;24.40;99.90;;;;;;4884223;29;20461;-63
2023/08/23 05:49:45;;;;;;;17.70;16.30;;;24.40;99.90;;;;;;4890856;29;20824;-62
2023/08/23 05:52:12;;;;;;;18.13;16.83;;;24.30;99.90;;;;;;4887645;29;21123;-64
2023/08/23 05:54:39;;;;;;;18.53;16.93;;;24.40;99.90;;;;;;4891196;29;20481;-62
2023/08/23 05:57:05;;;;;;;17.47;16.00;;;24.30;99.90;;;;;;4888411;29;20443;-65
2023/08/23 05:59:34;;;;;;;17.00;15.53;;;24.30;99.90;;;;;;4889852;29;20467;-64
2023/08/23 06:02:01;;;;;;;17.33;16.03;;;24.30;99.90;;;;;;4888152;29;21281;-64
2023/08/23 06:04:28;;;;;;;16.90;15.20;;;24.30;99.90;;;;;;4890463;29;20486;-63
2023/08/23 06:06:55;;;;;;;16.77;15.23;;;24.30;99.90;;;;;;4894708;29;20918;-64
2023/08/23 06:09:21;;;;;;;16.60;15.17;;;24.40;99.90;;;;;;4893443;29;20488;-64
2023/08/23 06:11:48;;;;;;;16.13;14.83;;;24.40;99.90;;;;;;4897498;29;20837;-64
2023/08/23 06:14:20;;;;;;;17.20;15.83;;;24.40;99.90;;;;;;4889331;29;20485;-64
2023/08/23 06:16:48;;;;;;;17.23;15.80;;;24.30;99.90;;;;;;4892970;29;20469;-64
2023/08/23 06:19:15;;;;;;;16.43;15.10;;;24.30;99.90;;;;;;4889396;29;20477;-66
2023/08/23 06:21:42;;;;;;;14.90;13.47;;;24.40;99.90;;;;;;4892697;29;20469;-64
2023/08/23 06:24:09;;;;;;;14.97;13.67;;;24.30;99.90;;;;;;4893047;29;20496;-65
2023/08/23 06:26:36;;;;;;;15.60;14.40;;;24.30;99.90;;;;;;4894174;29;20458;-63
2023/08/23 06:29:03;;;;;;;14.23;12.83;;;24.40;99.90;;;;;;4890118;29;20502;-63
2023/08/23 06:31:30;;;;;;;11.83;9.87;;;24.40;99.90;;;;;;4893097;29;20479;-63
2023/08/23 06:33:58;;;;;;;9.73;8.00;;;24.30;99.90;;;;;;4895305;29;20490;-63
2023/08/23 06:36:25;;;;;;;9.97;7.70;;;24.30;99.90;;;;;;4894166;29;20450;-66
2023/08/23 06:38:52;;;;;;;9.07;7.13;;;24.30;99.90;;;;;;4892996;29;20474;-64
2023/08/23 06:41:19;;;;;;;9.60;6.43;;;24.30;99.90;;;;;;4895012;29;20949;-64
2023/08/23 06:43:47;;;;;;;12.03;6.30;;;24.30;99.90;;;;;;4890295;29;20872;-65
2023/08/23 06:46:14;;;;;;;9.40;7.10;;;24.20;99.90;;;;;;4887384;29;20473;-64
2023/08/23 06:48:41;;;;;;;8.00;6.33;;;24.20;99.90;;;;;;4891163;29;20494;-63
2023/08/23 06:51:09;;;;;;;6.80;6.10;;;24.20;99.90;;;;;;4890332;29;20577;-64
2023/08/23 06:53:36;;;;;;;8.50;5.80;;;24.20;99.90;;;;;;4892157;29;20455;-63
2023/08/23 06:56:03;;;;;;;9.23;5.93;;;24.20;99.90;;;;;;4891666;29;20474;-65
2023/08/23 06:58:30;;;;;;;8.00;5.67;;;24.20;99.90;;;;;;4893340;29;20470;-66
2023/08/23 07:00:57;;;;;;;13.50;5.93;;;24.20;99.90;;;;;;4892344;29;20977;-65
2023/08/23 07:03:24;;;;;;;8.27;5.30;;;24.20;99.90;;;;;;4894985;29;20517;-63
2023/08/23 07:05:51;;;;;;;5.20;4.70;;;24.20;99.90;;;;;;4890932;29;20554;-65
2023/08/23 07:08:19;;;;;;;6.13;4.70;;;24.20;99.90;;;;;;4894478;29;20497;-66
2023/08/23 07:10:46;;;;;;;5.60;4.60;;;24.20;99.90;;;;;;4892861;29;20462;-65
2023/08/23 07:13:12;;;;;;;8.43;5.20;;;24.20;99.90;;;;;;4894773;29;20470;-64
2023/08/23 07:15:40;;;;;;;9.97;4.90;;;24.20;99.90;;;;;;4890253;29;20473;-65
2023/08/23 07:18:08;;;;;;;6.00;5.40;;;24.20;99.90;;;;;;4889604;29;20523;-65
2023/08/23 07:20:35;;;;;;;6.30;4.50;;;24.20;99.90;;;;;;4883458;29;20487;-64
2023/08/23 07:23:02;;;;;;;7.93;5.00;;;24.20;99.90;;;;;;4887768;29;20468;-63
2023/08/23 07:25:30;;;;;;;4.90;4.37;;;24.20;99.90;;;;;;4887323;29;20466;-65
2023/08/23 07:27:56;;;;;;;10.40;4.60;;;24.20;99.90;;;;;;4890003;29;21329;-64
2023/08/23 07:30:23;;;;;;;6.13;4.57;;;24.30;99.90;;;;;;4888286;29;20466;-64
2023/08/23 07:32:50;;;;;;;5.93;5.20;;;24.30;99.90;;;;;;4887339;29;20466;-64
2023/08/23 07:35:17;;;;;;;5.37;4.40;;;24.30;99.90;;;;;;4895954;29;20483;-64
2023/08/23 07:37:44;;;;;;;5.03;4.53;;;24.30;99.90;;;;;;4896315;29;20872;-66
2023/08/23 07:40:11;;;;;;;6.17;4.67;;;24.30;99.90;;;;;;4891620;29;20897;-64
2023/08/23 07:42:39;;;;;;;7.20;3.93;;;24.30;99.90;;;;;;4891235;29;20477;-65
2023/08/23 07:45:07;;;;;;;4.20;3.70;;;24.30;99.90;;;;;;4891467;29;21033;-64
2023/08/23 07:47:34;;;;;;;5.73;4.13;;;24.30;99.90;;;;;;4892735;29;20468;-64
2023/08/23 07:50:01;;;;;;;7.53;4.83;;;24.30;99.90;;;;;;4890790;29;20506;-65
2023/08/23 07:52:28;;;;;;;4.60;4.20;;;24.30;99.90;;;;;;4890601;29;20806;-64
2023/08/23 07:54:55;;;;;;;5.63;4.90;;;24.30;99.90;;;;;;4882998;29;20471;-67
2023/08/23 07:57:22;;;;;;;5.50;4.33;;;24.40;99.90;;;;;;4890860;29;20470;-64
2023/08/23 07:59:50;;;;;;;5.10;4.27;;;24.40;99.90;;;;;;4888070;29;20486;-65
2023/08/23 08:02:17;;;;;;;4.90;3.83;;;24.40;99.90;;;;;;4885045;29;20473;-64
2023/08/23 08:04:45;;;;;;;6.97;4.30;;;24.40;99.90;;;;;;4887845;29;20471;-65
2023/08/23 08:07:11;;;;;;;4.60;4.07;;;24.40;99.90;;;;;;4887311;29;20484;-65
2023/08/23 08:09:38;;;;;;;5.67;4.10;;;24.40;99.90;;;;;;4889902;29;20486;-64
2023/08/23 08:12:05;;;;;;;6.80;4.50;;;24.40;99.90;;;;;;4887245;29;20480;-64
2023/08/23 08:14:32;;;;;;;4.53;4.03;;;24.40;99.90;;;;;;4889666;29;20532;-56
2023/08/23 08:17:00;;;;;;;6.30;4.00;;;24.40;99.90;;;;;;4887147;29;20478;-56
2023/08/23 08:19:27;;;;;;;11.37;5.83;;;24.40;99.90;;;;;;4888115;29;20467;-57
2023/08/23 08:21:54;;;;;;;7.97;6.07;;;24.40;99.90;;;;;;4886566;29;20477;-61
2023/08/23 08:24:21;;;;;;;9.00;6.80;;;24.40;99.90;;;;;;4883230;29;20558;-61
2023/08/23 08:26:47;;;;;;;10.40;7.87;;;24.40;99.90;;;;;;4883871;29;20468;-56
2023/08/23 08:29:14;;;;;;;9.90;7.57;;;24.40;99.90;;;;;;4885225;29;20498;-56
2023/08/23 08:31:41;;;;;;;13.80;7.50;;;24.40;99.90;;;;;;4881969;29;20473;-54
2023/08/23 08:34:09;;;;;;;9.03;5.20;;;24.40;99.90;;;;;;4886674;29;21188;-56
2023/08/23 08:36:36;;;;;;;11.23;6.73;;;24.40;99.90;;;;;;4882032;29;20474;-56
2023/08/23 08:39:03;;;;;;;9.83;5.03;;;24.40;99.90;;;;;;4890262;29;20976;-53
2023/08/23 08:41:30;;;;;;;7.50;5.00;;;24.40;99.90;;;;;;4888741;29;20478;-57
2023/08/23 08:43:57;;;;;;;8.30;5.20;;;24.40;99.90;;;;;;4891104;29;20820;-55
2023/08/23 08:46:24;;;;;;;9.07;5.30;;;24.40;99.90;;;;;;4887807;29;20474;-58
2023/08/23 08:48:51;;;;;;;8.43;5.73;;;24.40;99.90;;;;;;4885409;29;20574;-56
2023/08/23 08:51:21;;;;;;;6.33;5.10;;;24.40;99.90;;;;;;4886891;29;20979;-57
2023/08/23 08:53:49;;;;;;;5.50;4.20;;;24.40;99.90;;;;;;4889742;29;20744;-57
2023/08/23 08:56:17;;;;;;;7.33;5.20;;;24.40;99.90;;;;;;4887850;29;20551;-57
2023/08/23 08:58:45;;;;;;;7.23;4.70;;;24.40;99.90;;;;;;4888054;29;20931;-58
2023/08/23 09:01:15;;;;;;;9.10;4.87;;;24.40;99.90;;;;;;4886344;29;20494;-56
2023/08/23 09:03:42;;;;;;;8.33;4.77;;;24.40;99.90;;;;;;4887671;29;20675;-57
2023/08/23 09:06:09;;;;;;;4.70;4.30;;;24.40;99.90;;;;;;4891165;29;20982;-56
2023/08/23 09:08:37;;;;;;;5.33;4.50;;;24.50;99.90;;;;;;4889821;29;20484;-58
2023/08/23 09:11:04;;;;;;;5.80;3.80;;;24.50;99.90;;;;;;4888236;29;21093;-57
2023/08/23 09:13:31;;;;;;;7.13;4.70;;;24.50;99.90;;;;;;4887282;29;21023;-56
2023/08/23 09:15:59;;;;;;;7.10;4.30;;;24.50;99.90;;;;;;4886723;29;20470;-53
2023/08/23 09:18:26;;;;;;;9.00;4.40;;;24.50;99.90;;;;;;4886306;29;20579;-58
2023/08/23 09:20:53;;;;;;;7.77;5.47;;;24.50;99.90;;;;;;4886592;29;20478;-54
2023/08/23 09:23:20;;;;;;;5.13;3.50;;;24.50;99.90;;;;;;4886906;29;20467;-58
2023/08/23 09:25:48;;;;;;;5.30;4.53;;;24.50;99.90;;;;;;4891026;29;20452;-57
2023/08/23 09:28:16;;;;;;;8.10;4.33;;;24.50;99.90;;;;;;4890034;29;20854;-52
2023/08/23 09:30:48;;;;;;;5.77;5.17;;;24.50;99.90;;;;;;4894452;29;20460;-58
2023/08/23 09:33:15;;;;;;;4.93;4.53;;;24.50;99.90;;;;;;4888777;29;20606;-51
2023/08/23 09:35:48;;;;;;;11.20;4.20;;;24.50;99.90;;;;;;4891172;29;20460;-53
2023/08/23 09:38:18;;;;;;;7.93;5.03;;;24.50;99.90;;;;;;4882547;29;20964;-57
2023/08/23 09:40:46;;;;;;;8.77;4.70;;;24.50;99.90;;;;;;4887997;29;20480;-53
2023/08/23 09:43:16;;;;;;;7.07;5.00;;;24.50;99.90;;;;;;4888214;29;20957;-57
2023/08/23 09:45:43;;;;;;;7.03;4.30;;;24.50;99.90;;;;;;4887341;29;20502;-56
2023/08/23 09:48:11;;;;;;;7.07;4.20;;;24.50;99.90;;;;;;4886929;29;24006;-59
2023/08/23 09:50:38;;;;;;;5.73;4.03;;;24.50;99.90;;;;;;4884860;29;20692;-56
2023/08/23 09:53:06;;;;;;;5.10;3.93;;;24.50;99.90;;;;;;4886709;29;20514;-55
2023/08/23 09:55:34;;;;;;;6.23;5.03;;;24.50;99.90;;;;;;4887807;29;20465;-52
2023/08/23 09:58:02;;;;;;;6.50;4.13;;;24.50;99.90;;;;;;4893157;29;20456;-57
2023/08/23 10:00:30;;;;;;;5.07;4.57;;;24.50;99.90;;;;;;4895595;29;20836;-54
2023/08/23 10:02:57;;;;;;;6.00;4.43;;;24.50;99.90;;;;;;4894083;29;20463;-52
2023/08/23 10:05:25;;;;;;;7.10;4.53;;;24.50;99.90;;;;;;4894301;29;20463;-57
2023/08/23 10:07:54;;;;;;;9.93;4.87;;;24.50;99.90;;;;;;4896314;29;20483;-55
2023/08/23 10:10:20;;;;;;;10.50;7.17;;;24.50;99.90;;;;;;4899667;29;20551;-55
2023/08/23 10:12:50;;;;;;;11.20;8.77;;;24.50;99.90;;;;;;4896327;29;20459;-57
2023/08/23 10:15:21;;;;;;;13.00;9.03;;;24.50;99.90;;;;;;4891795;29;20916;-54
2023/08/23 10:17:49;;;;;;;11.90;8.60;;;24.50;99.90;;;;;;4893105;29;21037;-57
2023/08/23 10:20:16;;;;;;;12.57;8.97;;;24.50;99.90;;;;;;4897244;29;20475;-53
2023/08/23 10:22:43;;;;;;;13.17;8.47;;;24.50;99.90;;;;;;4891100;29;20548;-58
2023/08/23 10:25:18;;;;;;;13.10;8.03;;;24.50;99.90;;;;;;4889177;29;20463;-59
2023/08/23 10:27:47;;;;;;;10.63;7.43;;;24.50;99.90;;;;;;4891044;29;20999;-66
2023/08/23 10:30:21;;;;;;;11.20;7.93;;;24.50;99.90;;;;;;4886178;29;21059;-70
2023/08/23 10:32:49;;;;;;;8.50;7.63;;;24.50;99.90;;;;;;4895667;29;20963;-66
2023/08/23 10:35:29;;;;;;;7.90;6.20;;;24.50;99.90;;;;;;4896518;29;20475;-70
2023/08/23 10:37:57;;;;;;;8.00;6.60;;;24.50;99.90;;;;;;4887321;29;20554;-66
2023/08/23 10:40:28;;;;;;;11.03;7.13;;;24.50;99.90;;;;;;4892906;29;20485;-63
2023/08/23 10:42:54;;;;;;;10.97;6.23;;;24.50;99.90;;;;;;4891789;29;20909;-60
2023/08/23 10:45:21;;;;;;;10.47;7.00;;;24.50;99.90;;;;;;4890209;29;20464;-63
2023/08/23 10:47:51;;;;;;;8.27;5.77;;;24.50;99.90;;;;;;4888227;29;20784;-60
2023/08/23 10:50:18;;;;;;;8.30;6.80;;;24.50;99.90;;;;;;4889856;29;20476;-63
2023/08/23 10:52:45;;;;;;;8.70;5.53;;;24.50;99.90;;;;;;4884842;29;20576;-63
2023/08/23 10:55:12;;;;;;;6.20;5.13;;;24.60;99.90;;;;;;4888202;29;20467;-64
2023/08/23 10:57:38;;;;;;;7.77;5.20;;;24.60;99.90;;;;;;4888086;29;20986;-57
2023/08/23 11:00:07;;;;;;;7.60;5.83;;;24.60;99.90;;;;;;4890172;29;20482;-64
2023/08/23 11:02:33;;;;;;;5.67;4.90;;;24.60;99.90;;;;;;4889027;29;20474;-65
2023/08/23 11:05:02;;;;;;;10.00;5.37;;;24.60;99.90;;;;;;4896621;29;20947;-63
2023/08/23 11:07:29;;;;;;;6.00;4.10;;;24.60;99.90;;;;;;4891293;29;20991;-64
2023/08/23 11:09:56;;;;;;;7.13;4.90;;;24.60;99.90;;;;;;4897441;29;20484;-64
2023/08/23 11:12:23;;;;;;;6.80;4.93;;;24.70;99.90;;;;;;4892828;29;20473;-65
2023/08/23 11:14:49;;;;;;;5.90;4.97;;;24.70;99.90;;;;;;4891413;29;20467;-57
2023/08/23 11:17:16;;;;;;;5.40;4.30;;;24.70;99.90;;;;;;4891988;29;20471;-62
2023/08/23 11:19:43;;;;;;;7.37;4.80;;;24.70;99.90;;;;;;4895639;29;20479;-63
2023/08/23 11:22:11;;;;;;;5.90;3.37;;;24.70;99.90;;;;;;4892633;29;20452;-63
2023/08/23 11:24:38;;;;;;;9.10;4.10;;;24.80;99.90;;;;;;4890309;29;20491;-64
2023/08/23 11:27:12;;;;;;;8.67;4.30;;;24.80;99.90;;;;;;4890550;29;20491;-66
2023/08/23 11:29:39;;;;;;;5.20;4.60;;;24.80;99.90;;;;;;4885022;29;20592;-65
2023/08/23 11:32:07;;;;;;;8.73;5.13;;;24.80;99.90;;;;;;4886122;29;20892;-63
2023/08/23 11:34:34;;;;;;;4.00;3.60;;;24.90;99.90;;;;;;4888275;29;20863;-58
2023/08/23 11:37:08;;;;;;;7.07;4.53;;;24.90;99.90;;;;;;4881594;29;20479;-55
2023/08/23 11:39:36;;;;;;;6.10;3.90;;;24.90;99.90;;;;;;4894285;29;20472;-54
2023/08/23 11:42:03;;;;;;;4.03;3.47;;;24.90;99.90;;;;;;4889667;29;20460;-62
2023/08/23 11:44:30;;;;;;;4.30;3.63;;;25.00;99.90;;;;;;4892699;29;20463;-68
2023/08/23 11:46:57;;;;;;;5.03;3.93;;;24.90;99.90;;;;;;4893596;29;20476;-69
2023/08/23 11:49:25;;;;;;;7.30;4.83;;;25.00;99.90;;;;;;4894418;29;20480;-63
2023/08/23 11:51:52;;;;;;;5.13;3.73;;;25.00;99.90;;;;;;4889047;29;20472;-62
2023/08/23 11:54:20;;;;;;;6.03;4.50;;;25.00;99.90;;;;;;4893445;29;20479;-63
2023/08/23 11:56:48;;;;;;;4.67;3.40;;;25.00;99.90;;;;;;4892757;29;20927;-65
2023/08/23 11:59:15;;;;;;;6.63;3.90;;;25.10;99.90;;;;;;4891506;29;20491;-62
2023/08/23 12:01:43;;;;;;;4.63;3.60;;;25.00;99.90;;;;;;4894866;29;20468;-65
2023/08/23 12:04:10;;;;;;;5.23;3.93;;;25.10;99.90;;;;;;4891008;29;20475;-62
2023/08/23 12:06:37;;;;;;;5.57;3.40;;;25.10;99.90;;;;;;4885957;29;20465;-61
2023/08/23 12:09:04;;;;;;;5.80;3.80;;;25.10;99.90;;;;;;4886105;29;20544;-63
2023/08/23 12:11:32;;;;;;;7.50;3.53;;;25.10;99.90;;;;;;4885615;29;20559;-61
2023/08/23 12:14:03;;;;;;;5.50;3.70;;;25.10;99.90;;;;;;4885268;29;20555;-63
2023/08/23 12:16:30;;;;;;;4.13;3.50;;;25.20;99.90;;;;;;4887031;29;20491;-55
2023/08/23 12:18:57;;;;;;;3.33;3.00;;;25.20;99.90;;;;;;4891721;29;21431;-55
2023/08/23 12:21:23;;;;;;;4.27;3.37;;;25.20;99.90;;;;;;4897191;29;20468;-60
2023/08/23 12:23:50;;;;;;;4.33;3.70;;;25.20;99.90;;;;;;4886828;29;20467;-56
2023/08/23 12:26:21;;;;;;;6.40;3.60;;;25.20;99.90;;;;;;4887035;29;20816;-55
2023/08/23 12:28:48;;;;;;;3.60;3.30;;;25.20;99.90;;;;;;4890767;29;20472;-57
2023/08/23 12:31:16;;;;;;;4.60;3.70;;;25.20;99.90;;;;;;4891340;29;20484;-57
2023/08/23 12:33:43;;;;;;;4.90;3.20;;;25.30;99.90;;;;;;4888597;29;20471;-55
2023/08/23 12:36:10;;;;;;;3.50;3.20;;;25.30;99.90;;;;;;4887056;29;20472;-57